Time;durP1;ratioP1;P1;durP2;ratioP2;P2;SDS_P1;SDS_P2;PMS_P1;PMS_P2;Temp;Humidity;BMP_temperature;BMP_pressure;BME280_temperature;BME280_humidity;BME280_pressure;Samples;Min_cycle;Max_cycle;Signal;HPM_P1;HPM_P2
2022/03/18 00:00:23;;;;;;;97.15;41.95;;;;;;;;;;5048719;28;20049;-60
2022/03/18 00:02:49;;;;;;;96.03;41.20;;;;;;;;;;5050796;28;20028;-60
2022/03/18 00:05:15;;;;;;;102.28;42.92;;;;;;;;;;5052050;28;20512;-61
2022/03/18 00:07:41;;;;;;;100.45;42.53;;;;;;;;;;5055172;28;20090;-60
2022/03/18 00:10:07;;;;;;;92.43;41.00;;;;;;;;;;5061041;28;20013;-60
2022/03/18 00:12:33;;;;;;;98.03;42.55;;;;;;;;;;5055521;28;20104;-60
2022/03/18 00:14:59;;;;;;;98.53;41.92;;;;;;;;;;5053612;28;20108;-59
2022/03/18 00:17:25;;;;;;;98.82;41.95;;;;;;;;;;5060182;28;20051;-58
2022/03/18 00:19:52;;;;;;;100.40;41.42;;;;;;;;;;5056997;28;20048;-60
2022/03/18 00:22:18;;;;;;;95.50;40.45;;;;;;;;;;5059056;28;20032;-59
2022/03/18 00:24:44;;;;;;;98.90;42.83;;;;;;;;;;5059274;28;20119;-61
2022/03/18 00:27:09;;;;;;;96.07;39.88;;;;;;;;;;5059992;28;20020;-62
2022/03/18 00:29:35;;;;;;;99.70;42.22;;;;;;;;;;5058767;28;20074;-60
2022/03/18 00:32:00;;;;;;;97.68;40.83;;;;;;;;;;5058170;28;20470;-61
2022/03/18 00:34:26;;;;;;;96.60;40.58;;;;;;;;;;5056055;28;20087;-61
2022/03/18 00:36:53;;;;;;;99.40;40.65;;;;;;;;;;5056592;28;20032;-62
2022/03/18 00:39:18;;;;;;;93.50;40.65;;;;;;;;;;5051313;28;20033;-62
2022/03/18 00:41:44;;;;;;;96.95;41.47;;;;;;;;;;5051236;28;20146;-58
2022/03/18 00:44:09;;;;;;;96.25;39.63;;;;;;;;;;5049617;28;20032;-61
2022/03/18 00:46:35;;;;;;;96.95;41.58;;;;;;;;;;5057799;28;20038;-62
2022/03/18 00:52:06;;;;;;;100.05;42.42;;;;;;;;;;5061331;28;20143;-58
2022/03/18 00:54:31;;;;;;;99.97;42.80;;;;;;;;;;5061739;28;20430;-58
2022/03/18 00:56:57;;;;;;;100.78;42.05;;;;;;;;;;5053049;28;20040;-60
2022/03/18 00:59:22;;;;;;;99.72;40.97;;;;;;;;;;5060411;28;20024;-60
2022/03/18 01:01:52;;;;;;;102.85;42.08;;;;;;;;;;5060707;28;20078;-62
2022/03/18 01:04:18;;;;;;;92.80;39.58;;;;;;;;;;5055991;28;20024;-61
2022/03/18 01:06:44;;;;;;;101.75;41.63;;;;;;;;;;5052216;28;20083;-60
2022/03/18 01:09:09;;;;;;;99.70;41.90;;;;;;;;;;5055950;28;20444;-61
2022/03/18 01:11:34;;;;;;;103.38;40.92;;;;;;;;;;5067327;28;20074;-60
2022/03/18 01:14:00;;;;;;;98.60;41.60;;;;;;;;;;5065521;28;20032;-59
2022/03/18 01:16:25;;;;;;;99.43;42.55;;;;;;;;;;5062766;28;20077;-59
2022/03/18 01:18:51;;;;;;;94.15;40.92;;;;;;;;;;5060193;28;20058;-59
2022/03/18 01:21:16;;;;;;;94.38;39.53;;;;;;;;;;5060486;28;20020;-62
2022/03/18 01:23:41;;;;;;;95.10;41.90;;;;;;;;;;5062391;28;20036;-62
2022/03/18 01:26:07;;;;;;;95.13;39.67;;;;;;;;;;5063906;28;20033;-59
2022/03/18 01:28:32;;;;;;;91.20;38.95;;;;;;;;;;5060936;28;20381;-59
2022/03/18 01:30:58;;;;;;;94.93;39.92;;;;;;;;;;5060353;28;20035;-61
2022/03/18 01:33:23;;;;;;;91.20;39.05;;;;;;;;;;5062431;28;20028;-60
2022/03/18 01:35:49;;;;;;;97.10;40.38;;;;;;;;;;5057770;28;20028;-61
2022/03/18 01:38:14;;;;;;;88.18;38.08;;;;;;;;;;5064648;28;20506;-60
2022/03/18 01:40:40;;;;;;;99.88;39.92;;;;;;;;;;5062569;28;20020;-59
2022/03/18 01:43:09;;;;;;;97.55;40.17;;;;;;;;;;5055906;28;20020;-61
2022/03/18 01:45:35;;;;;;;;;;;;;;;;;;5056342;28;20043;-59
2022/03/18 01:48:01;;;;;;;91.93;38.00;;;;;;;;;;5063412;28;19917;-59
2022/03/18 01:50:26;;;;;;;89.43;37.95;;;;;;;;;;5052833;28;20669;-59
2022/03/18 01:52:52;;;;;;;91.03;38.72;;;;;;;;;;5053106;28;20024;-58
2022/03/18 01:55:20;;;;;;;90.30;38.92;;;;;;;;;;5049175;28;20029;-60
2022/03/18 01:57:46;;;;;;;92.82;38.75;;;;;;;;;;5059666;28;20119;-61
2022/03/18 02:00:12;;;;;;;95.25;38.85;;;;;;;;;;5057940;28;20159;-59
2022/03/18 02:02:38;;;;;;;90.25;38.17;;;;;;;;;;5057420;28;20052;-59
2022/03/18 02:05:05;;;;;;;89.68;38.53;;;;;;;;;;5064614;28;20024;-59
2022/03/18 02:07:31;;;;;;;89.88;38.15;;;;;;;;;;5063594;28;20114;-60
2022/03/18 02:09:56;;;;;;;93.03;37.88;;;;;;;;;;5063516;28;20086;-58
2022/03/18 02:12:22;;;;;;;93.10;38.00;;;;;;;;;;5061203;28;20214;-60
2022/03/18 02:14:47;;;;;;;90.15;37.97;;;;;;;;;;5063405;28;20028;-58
2022/03/18 02:17:16;;;;;;;84.40;36.58;;;;;;;;;;5060015;28;20048;-60
2022/03/18 02:19:43;;;;;;;86.75;36.17;;;;;;;;;;5056455;28;20033;-60
2022/03/18 02:22:20;;;;;;;90.57;39.15;;;;;;;;;;5058728;28;20025;-58
2022/03/18 02:24:48;;;;;;;89.55;38.17;;;;;;;;;;5061876;28;20028;-59
2022/03/18 02:27:14;;;;;;;82.80;35.83;;;;;;;;;;5063850;28;20024;-58
2022/03/18 02:29:40;;;;;;;94.97;38.75;;;;;;;;;;5054998;28;20021;-59
2022/03/18 02:32:07;;;;;;;89.07;36.33;;;;;;;;;;5058536;28;20483;-60
2022/03/18 02:34:34;;;;;;;88.75;37.65;;;;;;;;;;5065017;28;20024;-58
2022/03/18 02:36:59;;;;;;;87.80;35.58;;;;;;;;;;5060125;28;20400;-58
2022/03/18 02:39:25;;;;;;;92.00;38.00;;;;;;;;;;5052550;28;20032;-60
2022/03/18 02:41:51;;;;;;;81.40;34.90;;;;;;;;;;5056577;28;20028;-60
2022/03/18 02:44:16;;;;;;;82.63;33.83;;;;;;;;;;5055514;28;20104;-60
2022/03/18 02:46:42;;;;;;;84.78;35.97;;;;;;;;;;5058993;28;20029;-58
2022/03/18 02:49:07;;;;;;;82.63;34.75;;;;;;;;;;5057935;28;20067;-61
2022/03/18 02:51:37;;;;;;;83.25;34.30;;;;;;;;;;5059309;28;20024;-59
2022/03/18 02:54:06;;;;;;;80.53;34.33;;;;;;;;;;5057549;28;20115;-59
2022/03/18 02:56:33;;;;;;;91.43;36.93;;;;;;;;;;5062804;28;20031;-59
2022/03/18 02:59:00;;;;;;;77.20;34.67;;;;;;;;;;5049822;28;20540;-62
2022/03/18 03:01:30;;;;;;;78.32;34.67;;;;;;;;;;5050538;28;20047;-59
2022/03/18 03:03:57;;;;;;;79.10;32.70;;;;;;;;;;5061799;28;20034;-60
2022/03/18 03:09:07;;;;;;;80.55;33.55;;;;;;;;;;5050812;28;20036;-59
2022/03/18 03:11:32;;;;;;;80.10;33.40;;;;;;;;;;5059891;28;20032;-59
2022/03/18 03:13:58;;;;;;;77.63;33.92;;;;;;;;;;5059929;28;20025;-60
2022/03/18 03:16:23;;;;;;;78.55;33.45;;;;;;;;;;5054447;28;20029;-59
2022/03/18 03:18:49;;;;;;;79.43;32.50;;;;;;;;;;5055041;28;20158;-59
2022/03/18 03:21:14;;;;;;;75.15;31.70;;;;;;;;;;5058779;28;20020;-59
2022/03/18 03:23:41;;;;;;;74.13;31.83;;;;;;;;;;5058410;28;20033;-58
2022/03/18 03:26:06;;;;;;;70.57;30.38;;;;;;;;;;5054268;28;20017;-59
2022/03/18 03:28:32;;;;;;;76.25;31.60;;;;;;;;;;5053181;28;20032;-59
2022/03/18 03:30:58;;;;;;;78.88;31.70;;;;;;;;;;5060881;28;20024;-58
2022/03/18 03:33:24;;;;;;;75.88;32.10;;;;;;;;;;5059661;28;20064;-59
2022/03/18 03:35:50;;;;;;;77.95;31.95;;;;;;;;;;5054922;28;20036;-58
2022/03/18 03:38:16;;;;;;;72.28;31.25;;;;;;;;;;5052591;28;20028;-60
2022/03/18 03:40:43;;;;;;;70.60;30.23;;;;;;;;;;5056627;28;20020;-60
2022/03/18 03:43:09;;;;;;;74.70;30.63;;;;;;;;;;5059991;28;20094;-58
2022/03/18 03:45:38;;;;;;;68.18;28.83;;;;;;;;;;5059012;28;20480;-58
2022/03/18 03:48:05;;;;;;;73.05;30.58;;;;;;;;;;5054565;28;20106;-60
2022/03/18 03:50:31;;;;;;;76.43;30.02;;;;;;;;;;5054619;28;20039;-59
2022/03/18 03:52:56;;;;;;;69.70;30.95;;;;;;;;;;5048573;28;20024;-58
2022/03/18 03:55:22;;;;;;;73.53;30.42;;;;;;;;;;5050868;28;20392;-59
2022/03/18 03:57:47;;;;;;;67.47;28.38;;;;;;;;;;5055206;28;20088;-59
2022/03/18 04:00:13;;;;;;;69.93;28.50;;;;;;;;;;5049604;28;20032;-59
2022/03/18 04:02:39;;;;;;;67.65;28.35;;;;;;;;;;5060251;28;20423;-58
2022/03/18 04:05:08;;;;;;;70.38;29.25;;;;;;;;;;5057158;28;20016;-60
2022/03/18 04:07:37;;;;;;;69.55;28.02;;;;;;;;;;5060316;28;20029;-59
2022/03/18 04:10:07;;;;;;;67.57;26.73;;;;;;;;;;5052652;28;20355;-59
2022/03/18 04:12:33;;;;;;;;;;;;;;;;;;5059896;28;20447;-59
2022/03/18 04:15:03;;;;;;;63.20;26.33;;;;;;;;;;5062145;28;19912;-59
2022/03/18 04:17:46;;;;;;;66.97;28.20;;;;;;;;;;5053403;28;20032;-57
2022/03/18 04:20:14;;;;;;;67.05;28.05;;;;;;;;;;5057051;28;20020;-58
2022/03/18 04:22:40;;;;;;;70.43;29.95;;;;;;;;;;5053128;28;20037;-57
2022/03/18 04:25:07;;;;;;;72.75;29.65;;;;;;;;;;5063632;28;20028;-59
2022/03/18 04:27:33;;;;;;;67.63;28.38;;;;;;;;;;5060003;28;20040;-59
2022/03/18 04:29:58;;;;;;;63.33;27.08;;;;;;;;;;5065566;28;20032;-58
2022/03/18 04:32:24;;;;;;;67.07;28.55;;;;;;;;;;5058771;28;20426;-58
2022/03/18 04:34:49;;;;;;;66.43;28.35;;;;;;;;;;5060670;28;20403;-59
2022/03/18 04:37:15;;;;;;;67.30;27.20;;;;;;;;;;5055823;28;20468;-58
2022/03/18 04:39:40;;;;;;;71.60;29.83;;;;;;;;;;5058685;28;20024;-59
2022/03/18 04:42:06;;;;;;;71.60;29.02;;;;;;;;;;5053816;28;20136;-58
2022/03/18 04:44:31;;;;;;;71.70;28.17;;;;;;;;;;5057323;28;20025;-59
2022/03/18 04:46:56;;;;;;;70.65;29.75;;;;;;;;;;5068478;28;20111;-61
2022/03/18 04:49:22;;;;;;;67.07;27.83;;;;;;;;;;5053406;28;20021;-60
2022/03/18 04:51:47;;;;;;;69.03;29.20;;;;;;;;;;5061863;28;20052;-59
2022/03/18 04:54:13;;;;;;;69.35;29.02;;;;;;;;;;5064585;28;20442;-61
2022/03/18 04:57:20;;;;;;;67.18;27.92;;;;;;;;;;5057980;28;20078;-58
2022/03/18 04:59:27;;;;;;;71.03;29.58;;;;;;;;;;5052003;28;20044;-60
2022/03/18 05:01:52;;;;;;;73.22;29.33;;;;;;;;;;5055805;28;20224;-60
2022/03/18 05:04:17;;;;;;;69.68;28.17;;;;;;;;;;5067556;28;20059;-58
2022/03/18 05:06:43;;;;;;;69.57;28.05;;;;;;;;;;5065966;28;20067;-58
2022/03/18 05:09:08;;;;;;;70.60;28.52;;;;;;;;;;5060261;28;20455;-58
2022/03/18 05:11:34;;;;;;;63.00;27.10;;;;;;;;;;5063067;28;20029;-57
2022/03/18 05:13:59;;;;;;;63.63;26.92;;;;;;;;;;5064892;28;20029;-60
2022/03/18 05:16:25;;;;;;;63.55;28.50;;;;;;;;;;5062656;28;20055;-57
2022/03/18 05:18:52;;;;;;;72.85;27.98;;;;;;;;;;5059583;28;20029;-59
2022/03/18 05:21:17;;;;;;;69.28;29.15;;;;;;;;;;5059359;28;20348;-58
2022/03/18 05:23:43;;;;;;;66.55;27.15;;;;;;;;;;5065105;28;20024;-59
2022/03/18 05:26:08;;;;;;;72.70;29.48;;;;;;;;;;5061006;28;20043;-60
2022/03/18 05:28:34;;;;;;;71.63;29.40;;;;;;;;;;5059208;28;20047;-58
2022/03/18 05:30:59;;;;;;;67.63;28.08;;;;;;;;;;5059989;28;20025;-59
2022/03/18 05:33:25;;;;;;;63.53;27.95;;;;;;;;;;5053527;28;20028;-60
2022/03/18 05:35:51;;;;;;;75.68;29.73;;;;;;;;;;5059323;28;20495;-59
2022/03/18 05:38:16;;;;;;;74.97;30.08;;;;;;;;;;5051904;28;20040;-60
2022/03/18 05:40:42;;;;;;;70.10;30.67;;;;;;;;;;5056324;28;20132;-58
2022/03/18 05:43:08;;;;;;;69.25;28.90;;;;;;;;;;5055010;28;20028;-59
2022/03/18 05:45:33;;;;;;;67.95;28.23;;;;;;;;;;5061311;28;20040;-59
2022/03/18 05:47:59;;;;;;;73.55;30.33;;;;;;;;;;5053703;28;20048;-59
2022/03/18 05:50:25;;;;;;;69.15;27.58;;;;;;;;;;5052250;28;20025;-57
2022/03/18 05:52:51;;;;;;;75.90;29.67;;;;;;;;;;5057533;28;20097;-59
2022/03/18 05:55:16;;;;;;;70.70;30.90;;;;;;;;;;5056997;28;20087;-60
2022/03/18 05:57:42;;;;;;;75.95;31.50;;;;;;;;;;5056143;28;20480;-59
2022/03/18 06:00:08;;;;;;;73.63;31.98;;;;;;;;;;5056367;28;20032;-59
2022/03/18 06:02:33;;;;;;;71.57;30.75;;;;;;;;;;5055936;28;20017;-58
2022/03/18 06:05:00;;;;;;;74.50;31.30;;;;;;;;;;5065052;28;20078;-61
2022/03/18 06:07:25;;;;;;;74.90;29.65;;;;;;;;;;5063622;28;20028;-59
2022/03/18 06:12:35;;;;;;;67.05;28.73;;;;;;;;;;5058871;28;20032;-59
2022/03/18 06:15:01;;;;;;;69.90;29.58;;;;;;;;;;5056642;28;20024;-59
2022/03/18 06:17:26;;;;;;;71.38;30.25;;;;;;;;;;5051871;28;20056;-58
2022/03/18 06:19:51;;;;;;;73.05;30.83;;;;;;;;;;5062520;28;20036;-59
2022/03/18 06:22:17;;;;;;;78.10;31.83;;;;;;;;;;5062338;28;20028;-60
2022/03/18 06:24:42;;;;;;;79.07;31.15;;;;;;;;;;5066069;28;20399;-60
2022/03/18 06:27:08;;;;;;;75.20;30.77;;;;;;;;;;5059599;28;20048;-60
2022/03/18 06:29:35;;;;;;;71.03;29.92;;;;;;;;;;5058318;28;20049;-60
2022/03/18 06:32:01;;;;;;;78.78;31.65;;;;;;;;;;5056444;28;20450;-59
2022/03/18 06:34:26;;;;;;;77.97;31.50;;;;;;;;;;5058535;28;20035;-60
2022/03/18 06:36:54;;;;;;;74.35;30.35;;;;;;;;;;5058662;28;20058;-60
2022/03/18 06:39:22;;;;;;;83.57;32.75;;;;;;;;;;5057456;28;20028;-60
2022/03/18 06:41:47;;;;;;;90.70;32.38;;;;;;;;;;5061421;28;20032;-60
2022/03/18 06:44:13;;;;;;;77.18;30.67;;;;;;;;;;5066719;28;20028;-60
2022/03/18 06:46:39;;;;;;;85.63;32.03;;;;;;;;;;5060167;28;20035;-60
2022/03/18 06:49:05;;;;;;;84.68;32.45;;;;;;;;;;5059364;28;20096;-60
2022/03/18 06:51:31;;;;;;;83.43;31.85;;;;;;;;;;5062977;28;20024;-61
2022/03/18 06:53:57;;;;;;;79.00;30.85;;;;;;;;;;5057433;28;20031;-60
2022/03/18 06:56:23;;;;;;;80.22;32.15;;;;;;;;;;5063244;28;20031;-60
2022/03/18 06:58:48;;;;;;;79.50;30.90;;;;;;;;;;5066977;28;20051;-60
2022/03/18 07:01:15;;;;;;;78.55;29.92;;;;;;;;;;5053059;28;20020;-60
2022/03/18 07:03:40;;;;;;;83.05;31.73;;;;;;;;;;5047528;28;20064;-61
2022/03/18 07:06:06;;;;;;;83.22;33.38;;;;;;;;;;5056368;28;20075;-59
2022/03/18 07:08:34;;;;;;;78.78;31.17;;;;;;;;;;5051540;28;20552;-60
2022/03/18 07:11:00;;;;;;;81.93;32.42;;;;;;;;;;5056318;28;20036;-60
2022/03/18 07:13:26;;;;;;;77.35;30.65;;;;;;;;;;5058890;28;20034;-60
2022/03/18 07:15:51;;;;;;;92.55;34.78;;;;;;;;;;5061552;28;20085;-60
2022/03/18 07:18:17;;;;;;;86.50;32.63;;;;;;;;;;5053775;28;20025;-59
2022/03/18 07:20:43;;;;;;;86.70;33.35;;;;;;;;;;5061019;28;20043;-60
2022/03/18 07:23:16;;;;;;;89.38;33.03;;;;;;;;;;5054190;28;20039;-60
2022/03/18 07:25:44;;;;;;;87.43;33.97;;;;;;;;;;5054708;28;20032;-60
2022/03/18 07:28:12;;;;;;;90.43;34.78;;;;;;;;;;5057328;28;20056;-60
2022/03/18 07:30:38;;;;;;;91.03;34.13;;;;;;;;;;5054631;28;20052;-60
2022/03/18 07:33:04;;;;;;;83.35;33.42;;;;;;;;;;5058331;28;20035;-60
2022/03/18 07:35:31;;;;;;;89.13;33.63;;;;;;;;;;5043673;28;20028;-59
2022/03/18 07:37:56;;;;;;;85.50;33.00;;;;;;;;;;5055581;28;20074;-60
2022/03/18 07:40:22;;;;;;;82.07;32.78;;;;;;;;;;5060460;28;20025;-60
2022/03/18 07:42:49;;;;;;;87.30;33.70;;;;;;;;;;5055310;28;20037;-60
2022/03/18 07:45:28;;;;;;;92.32;36.17;;;;;;;;;;5052403;28;20488;-59
2022/03/18 07:47:56;;;;;;;94.57;34.78;;;;;;;;;;5045696;28;20400;-60
2022/03/18 07:50:23;;;;;;;87.38;33.97;;;;;;;;;;5060498;28;20052;-59
2022/03/18 07:52:54;;;;;;;94.45;34.75;;;;;;;;;;5051985;28;20058;-59
2022/03/18 07:55:21;;;;;;;87.50;34.05;;;;;;;;;;5054939;28;20029;-59
2022/03/18 07:57:47;;;;;;;88.63;34.60;;;;;;;;;;5049372;28;20431;-60
2022/03/18 08:00:14;;;;;;;88.95;34.50;;;;;;;;;;5046197;28;20522;-61
2022/03/18 08:02:41;;;;;;;92.97;35.40;;;;;;;;;;5048948;28;20135;-59
2022/03/18 08:05:07;;;;;;;80.10;32.63;;;;;;;;;;5062825;28;20017;-60
2022/03/18 08:07:33;;;;;;;89.15;34.45;;;;;;;;;;5056885;28;20033;-60
2022/03/18 08:09:59;;;;;;;90.13;33.83;;;;;;;;;;5057424;28;20127;-60
2022/03/18 08:12:28;;;;;;;91.18;35.03;;;;;;;;;;5056683;28;20047;-59
2022/03/18 08:15:00;;;;;;;91.75;34.55;;;;;;;;;;5059859;28;20557;-60
2022/03/18 08:17:26;;;;;;;87.35;33.40;;;;;;;;;;5047976;28;20029;-59
2022/03/18 08:19:52;;;;;;;82.28;33.10;;;;;;;;;;5055913;28;20434;-60
2022/03/18 08:22:22;;;;;;;81.80;33.08;;;;;;;;;;5050663;28;20111;-60
2022/03/18 08:24:48;;;;;;;;;;;;;;;;;;5058041;28;20020;-60
2022/03/18 08:27:14;;;;;;;81.43;33.03;;;;;;;;;;5057249;28;20401;-59
2022/03/18 08:29:40;;;;;;;87.45;35.90;;;;;;;;;;5054612;28;20078;-59
2022/03/18 08:32:07;;;;;;;88.05;34.92;;;;;;;;;;5049553;28;20124;-59
2022/03/18 08:34:32;;;;;;;91.05;35.20;;;;;;;;;;5056748;28;20033;-59
2022/03/18 08:36:58;;;;;;;88.63;34.50;;;;;;;;;;5049513;28;20029;-62
2022/03/18 08:39:24;;;;;;;90.85;34.72;;;;;;;;;;5049248;28;20174;-60
2022/03/18 08:41:50;;;;;;;90.88;34.42;;;;;;;;;;5058875;28;20111;-60
2022/03/18 08:44:19;;;;;;;82.90;33.20;;;;;;;;;;5054404;28;20124;-61
2022/03/18 08:46:46;;;;;;;86.55;34.47;;;;;;;;;;5049499;28;20037;-59
2022/03/18 08:49:11;;;;;;;82.70;32.75;;;;;;;;;;5045710;28;20032;-60
2022/03/18 08:51:37;;;;;;;84.68;33.28;;;;;;;;;;5046638;28;20033;-59
2022/03/18 08:54:02;;;;;;;89.78;34.60;;;;;;;;;;5056921;28;20032;-60
2022/03/18 08:56:28;;;;;;;84.95;33.85;;;;;;;;;;5053443;28;20020;-59
2022/03/18 08:58:53;;;;;;;79.28;31.52;;;;;;;;;;5046106;28;20047;-59
2022/03/18 09:01:19;;;;;;;80.20;33.50;;;;;;;;;;5053209;28;20114;-60
2022/03/18 09:03:44;;;;;;;85.43;32.38;;;;;;;;;;5054085;28;20557;-60
2022/03/18 09:06:11;;;;;;;80.15;31.42;;;;;;;;;;5057984;28;20032;-59
2022/03/18 09:08:37;;;;;;;81.88;32.58;;;;;;;;;;5051220;28;20025;-60
2022/03/18 09:11:03;;;;;;;82.05;32.70;;;;;;;;;;5059179;28;20028;-59
2022/03/18 09:13:28;;;;;;;87.88;33.47;;;;;;;;;;5054586;28;20091;-60
2022/03/18 09:15:54;;;;;;;92.05;33.75;;;;;;;;;;5062601;28;20030;-60
2022/03/18 09:18:19;;;;;;;86.25;33.65;;;;;;;;;;5056666;28;20043;-59
2022/03/18 09:20:45;;;;;;;88.75;34.75;;;;;;;;;;5060351;28;20449;-59
2022/03/18 09:23:10;;;;;;;103.57;38.90;;;;;;;;;;5061302;28;20020;-60
2022/03/18 09:25:36;;;;;;;81.07;33.60;;;;;;;;;;5062325;28;20032;-60
2022/03/18 09:28:03;;;;;;;77.72;32.75;;;;;;;;;;5052644;28;20024;-59
2022/03/18 09:30:29;;;;;;;77.55;32.17;;;;;;;;;;5060741;28;20050;-59
2022/03/18 09:32:54;;;;;;;75.13;31.52;;;;;;;;;;5061791;28;20560;-60
2022/03/18 09:35:21;;;;;;;77.80;32.55;;;;;;;;;;5061396;28;20075;-60
2022/03/18 09:37:47;;;;;;;75.32;32.03;;;;;;;;;;5051433;28;20408;-60
2022/03/18 09:40:12;;;;;;;73.93;30.20;;;;;;;;;;5051189;28;20033;-59
2022/03/18 09:42:58;;;;;;;79.82;32.83;;;;;;;;;;5058162;28;20431;-60
2022/03/18 09:45:31;;;;;;;75.97;30.95;;;;;;;;;;5057293;28;20029;-60
2022/03/18 09:47:58;;;;;;;82.22;32.13;;;;;;;;;;5056473;28;20027;-60
2022/03/18 09:50:24;;;;;;;70.55;31.17;;;;;;;;;;5065718;28;20338;-60
2022/03/18 09:52:50;;;;;;;73.70;30.38;;;;;;;;;;5058689;28;20099;-60
2022/03/18 09:55:16;;;;;;;74.05;31.50;;;;;;;;;;5061454;28;20026;-60
2022/03/18 09:57:41;;;;;;;75.13;30.48;;;;;;;;;;5058069;28;20032;-60
2022/03/18 10:00:07;;;;;;;69.70;29.73;;;;;;;;;;5048322;28;20029;-61
2022/03/18 10:02:34;;;;;;;67.38;29.58;;;;;;;;;;5056915;28;20048;-59
2022/03/18 10:05:05;;;;;;;70.13;30.20;;;;;;;;;;5063779;28;20714;-59
2022/03/18 10:07:31;;;;;;;69.50;30.58;;;;;;;;;;5059404;28;20108;-60
2022/03/18 10:10:16;;;;;;;76.88;32.75;;;;;;;;;;5057506;28;20391;-61
2022/03/18 10:12:47;;;;;;;68.43;30.23;;;;;;;;;;5053941;28;20037;-59
2022/03/18 10:15:22;;;;;;;69.88;30.83;;;;;;;;;;5062547;28;20414;-60
2022/03/18 10:17:55;;;;;;;71.43;29.67;;;;;;;;;;5050823;28;20549;-61
2022/03/18 10:20:32;;;;;;;65.68;31.10;;;;;;;;;;5057529;28;20104;-61
2022/03/18 10:23:02;;;;;;;67.57;29.25;;;;;;;;;;5061309;28;20025;-59
2022/03/18 10:25:39;;;;;;;65.43;29.90;;;;;;;;;;5056052;28;20532;-59
2022/03/18 10:28:10;;;;;;;63.63;29.67;;;;;;;;;;5059816;28;20040;-60
2022/03/18 10:30:36;;;;;;;66.00;29.45;;;;;;;;;;5055185;28;20147;-60
2022/03/18 10:33:03;;;;;;;61.45;29.10;;;;;;;;;;5054979;28;20103;-59
2022/03/18 10:38:35;;;;;;;69.05;29.55;;;;;;;;;;5056793;28;20055;-59
2022/03/18 10:41:23;;;;;;;60.50;29.05;;;;;;;;;;5058465;28;20035;-59
2022/03/18 10:43:55;;;;;;;70.55;32.42;;;;;;;;;;5052503;28;20033;-59
2022/03/18 10:46:21;;;;;;;64.10;29.23;;;;;;;;;;5048350;28;20400;-60
2022/03/18 10:49:07;;;;;;;66.85;31.40;;;;;;;;;;5059769;28;20024;-60
2022/03/18 10:51:37;;;;;;;62.13;29.58;;;;;;;;;;5052137;28;20021;-61
2022/03/18 10:54:03;;;;;;;66.10;29.45;;;;;;;;;;5052566;28;20104;-60
2022/03/18 10:56:28;;;;;;;66.85;29.73;;;;;;;;;;5053902;28;20103;-59
2022/03/18 10:58:55;;;;;;;63.55;29.75;;;;;;;;;;5060538;28;20082;-59
2022/03/18 11:01:23;;;;;;;64.85;29.33;;;;;;;;;;5064973;28;20032;-61
2022/03/18 11:03:50;;;;;;;60.50;28.65;;;;;;;;;;5059693;28;20081;-60
2022/03/18 11:06:17;;;;;;;61.05;29.27;;;;;;;;;;5059416;28;20392;-60
2022/03/18 11:08:47;;;;;;;62.42;30.20;;;;;;;;;;5053169;28;20368;-60
2022/03/18 11:11:17;;;;;;;62.97;30.05;;;;;;;;;;5057828;28;20028;-60
2022/03/18 11:13:51;;;;;;;60.17;28.17;;;;;;;;;;5060379;28;20059;-60
2022/03/18 11:16:24;;;;;;;67.90;30.15;;;;;;;;;;5057439;28;20056;-59
2022/03/18 11:18:50;;;;;;;58.28;28.45;;;;;;;;;;5057312;28;20104;-60
2022/03/18 11:21:17;;;;;;;61.35;29.40;;;;;;;;;;5060785;28;20119;-59
2022/03/18 11:23:45;;;;;;;60.60;28.23;;;;;;;;;;5055998;28;20033;-60
2022/03/18 11:26:14;;;;;;;57.42;28.38;;;;;;;;;;5054727;28;20025;-60
2022/03/18 11:28:40;;;;;;;62.08;30.17;;;;;;;;;;5055324;28;20048;-60
2022/03/18 11:31:08;;;;;;;62.97;28.83;;;;;;;;;;5050296;28;20573;-59
2022/03/18 11:33:34;;;;;;;64.00;30.27;;;;;;;;;;5052830;28;20017;-60
2022/03/18 11:36:02;;;;;;;62.22;29.05;;;;;;;;;;5056737;28;20056;-59
2022/03/18 11:38:55;;;;;;;62.90;29.23;;;;;;;;;;5051525;28;20024;-59
2022/03/18 11:41:24;;;;;;;63.83;30.02;;;;;;;;;;5054818;28;20202;-61
2022/03/18 11:43:51;;;;;;;59.38;29.50;;;;;;;;;;5059500;28;20163;-61
2022/03/18 11:46:16;;;;;;;58.50;28.90;;;;;;;;;;5062786;28;20119;-60
2022/03/18 11:48:57;;;;;;;60.63;29.63;;;;;;;;;;5054694;28;20039;-61
2022/03/18 11:51:29;;;;;;;62.63;29.77;;;;;;;;;;5055267;28;21293;-59
2022/03/18 11:53:57;;;;;;;58.42;29.65;;;;;;;;;;5049508;28;20500;-60
2022/03/18 11:56:45;;;;;;;63.83;31.27;;;;;;;;;;5049579;28;22507;-59
2022/03/18 11:59:25;;;;;;;64.57;30.05;;;;;;;;;;5061425;28;20698;-60
2022/03/18 12:02:12;;;;;;;63.63;31.08;;;;;;;;;;5056415;28;20032;-60
2022/03/18 12:04:47;;;;;;;61.65;30.02;;;;;;;;;;5058731;28;20043;-59
2022/03/18 12:07:13;;;;;;;61.05;30.35;;;;;;;;;;5053675;28;20037;-60
2022/03/18 12:09:50;;;;;;;59.65;30.90;;;;;;;;;;5061595;28;20036;-60
2022/03/18 12:12:18;;;;;;;65.10;31.70;;;;;;;;;;5055877;28;20523;-60
2022/03/18 12:14:44;;;;;;;58.45;29.48;;;;;;;;;;5058566;28;20190;-61
2022/03/18 12:17:10;;;;;;;66.53;31.25;;;;;;;;;;5055070;28;20536;-61
2022/03/18 12:19:38;;;;;;;62.92;30.50;;;;;;;;;;5051480;28;20032;-60
2022/03/18 12:22:05;;;;;;;60.83;31.40;;;;;;;;;;5054759;28;20028;-60
2022/03/18 12:24:32;;;;;;;61.13;30.15;;;;;;;;;;5048257;28;20042;-60
2022/03/18 12:27:00;;;;;;;61.25;29.63;;;;;;;;;;5056365;28;20391;-60
2022/03/18 12:29:28;;;;;;;61.50;30.67;;;;;;;;;;5057139;28;20497;-60
2022/03/18 12:32:05;;;;;;;58.75;29.70;;;;;;;;;;5055877;28;20021;-60
2022/03/18 12:34:30;;;;;;;62.05;29.98;;;;;;;;;;5050552;28;20472;-60
2022/03/18 12:36:56;;;;;;;65.40;32.03;;;;;;;;;;5057060;28;20031;-60
2022/03/18 12:39:29;;;;;;;63.10;30.63;;;;;;;;;;5049929;28;20028;-61
2022/03/18 12:42:08;;;;;;;62.53;30.67;;;;;;;;;;5048919;28;20094;-59
2022/03/18 12:44:34;;;;;;;57.97;30.27;;;;;;;;;;5050006;28;20025;-60
2022/03/18 12:47:01;;;;;;;61.65;31.55;;;;;;;;;;5053888;28;20956;-60
2022/03/18 12:49:35;;;;;;;62.47;31.05;;;;;;;;;;5055895;28;20043;-60
2022/03/18 12:52:01;;;;;;;60.13;29.88;;;;;;;;;;5056954;28;20040;-61
2022/03/18 12:54:27;;;;;;;63.63;31.65;;;;;;;;;;5064040;28;20058;-61
2022/03/18 12:56:53;;;;;;;62.70;30.65;;;;;;;;;;5054939;28;20086;-61
2022/03/18 12:59:19;;;;;;;57.85;30.42;;;;;;;;;;5063341;28;20028;-60
2022/03/18 13:01:53;;;;;;;59.78;31.40;;;;;;;;;;5063268;28;20032;-60
2022/03/18 13:04:20;;;;;;;62.00;30.15;;;;;;;;;;5059806;28;20021;-61
2022/03/18 13:06:50;;;;;;;66.90;32.65;;;;;;;;;;5053150;28;20107;-61
2022/03/18 13:09:16;;;;;;;56.78;30.00;;;;;;;;;;5059266;28;20482;-59
2022/03/18 13:11:42;;;;;;;56.58;30.23;;;;;;;;;;5060175;28;20028;-59
2022/03/18 13:14:07;;;;;;;61.53;32.85;;;;;;;;;;5059809;28;20044;-61
2022/03/18 13:16:44;;;;;;;67.35;33.15;;;;;;;;;;5060997;28;20052;-61
2022/03/18 13:19:10;;;;;;;61.42;32.08;;;;;;;;;;5060375;28;20135;-61
2022/03/18 13:21:47;;;;;;;63.13;33.25;;;;;;;;;;5058424;28;20120;-61
2022/03/18 13:24:14;;;;;;;60.38;31.63;;;;;;;;;;5059809;28;20024;-61
2022/03/18 13:26:45;;;;;;;57.70;30.33;;;;;;;;;;5058355;28;20067;-61
2022/03/18 13:29:11;;;;;;;67.03;33.63;;;;;;;;;;5051012;28;20029;-61
2022/03/18 13:34:32;;;;;;;71.35;31.88;;;;;;;;;;5064396;28;20047;-61
2022/03/18 13:37:16;;;;;;;65.53;32.08;;;;;;;;;;5058778;28;20024;-61
2022/03/18 13:39:42;;;;;;;61.17;30.08;;;;;;;;;;5053473;28;20028;-60
2022/03/18 13:42:20;;;;;;;77.75;33.67;;;;;;;;;;5057652;28;20059;-60
2022/03/18 13:44:47;;;;;;;64.53;32.25;;;;;;;;;;5057211;28;20028;-60
2022/03/18 13:47:13;;;;;;;60.00;29.10;;;;;;;;;;5055587;28;20028;-60
2022/03/18 13:49:52;;;;;;;57.72;29.63;;;;;;;;;;5051217;28;20025;-60
2022/03/18 13:52:17;;;;;;;57.67;28.93;;;;;;;;;;5055244;28;20124;-60
2022/03/18 13:54:47;;;;;;;60.90;30.88;;;;;;;;;;5051104;28;20211;-61
2022/03/18 13:57:13;;;;;;;59.83;30.13;;;;;;;;;;5055477;28;20029;-60
2022/03/18 14:00:07;;;;;;;54.60;28.05;;;;;;;;;;5057420;28;20060;-61
2022/03/18 14:02:34;;;;;;;58.25;28.10;;;;;;;;;;5054049;28;20024;-60
2022/03/18 14:05:00;;;;;;;58.13;29.27;;;;;;;;;;5057424;28;20028;-62
2022/03/18 14:07:49;;;;;;;59.40;29.73;;;;;;;;;;5056008;28;20480;-61
2022/03/18 14:10:17;;;;;;;59.65;29.73;;;;;;;;;;5050988;28;20021;-60
2022/03/18 14:13:03;;;;;;;60.63;31.02;;;;;;;;;;5055908;28;20037;-61
2022/03/18 14:15:42;;;;;;;57.35;28.85;;;;;;;;;;5051897;28;20021;-60
2022/03/18 14:18:09;;;;;;;58.50;29.55;;;;;;;;;;5058227;28;20025;-60
2022/03/18 14:20:57;;;;;;;51.10;27.58;;;;;;;;;;5054919;28;20086;-61
2022/03/18 14:23:30;;;;;;;56.17;28.17;;;;;;;;;;5056402;28;20028;-59
2022/03/18 14:25:57;;;;;;;60.42;29.77;;;;;;;;;;5056760;28;20021;-60
2022/03/18 14:28:27;;;;;;;56.53;28.45;;;;;;;;;;5053609;28;20025;-60
2022/03/18 14:30:54;;;;;;;60.30;30.17;;;;;;;;;;5050575;28;20074;-61
2022/03/18 14:33:22;;;;;;;58.63;29.05;;;;;;;;;;5056643;28;20502;-60
2022/03/18 14:35:49;;;;;;;56.15;28.23;;;;;;;;;;5055736;28;20032;-62